createdAt,value
2022-09-01T00:01:49.685Z,74.88
2022-09-01T00:04:21.292Z,75.26
2022-09-01T00:06:49.145Z,74.85
2022-09-01T00:09:18.926Z,75.88
2022-09-01T00:11:50.707Z,76.49
2022-09-01T00:14:29.934Z,77.90
2022-09-01T00:17:02.712Z,75.05
2022-09-01T00:19:29.844Z,75.97
2022-09-01T00:21:57.240Z,74.50
2022-09-01T00:24:26.416Z,74.12
2022-09-01T00:26:55.036Z,76.10
2022-09-01T00:29:22.302Z,79.35
2022-09-01T00:31:50.339Z,82.08
2022-09-01T00:34:17.706Z,80.91
2022-09-01T00:36:44.983Z,80.95
2022-09-01T00:39:14.128Z,80.61
2022-09-01T00:41:43.047Z,80.81
2022-09-01T00:44:13.591Z,79.00
2022-09-01T00:46:49.673Z,77.77
2022-09-01T00:49:37.238Z,78.35
2022-09-01T00:52:44.175Z,80.07
2022-09-01T00:55:17.790Z,77.64
2022-09-01T00:57:45.879Z,76.88
2022-09-01T01:00:23.589Z,75.81
2022-09-01T01:02:56.334Z,74.58
2022-09-01T01:05:28.128Z,76.67
2022-09-01T01:07:56.081Z,77.36
2022-09-01T01:10:24.426Z,80.02
2022-09-01T01:12:51.843Z,78.34
2022-09-01T01:15:19.489Z,80.44
2022-09-01T01:17:46.291Z,79.34
2022-09-01T01:20:36.160Z,79.10
2022-09-01T01:23:21.019Z,77.39
2022-09-01T01:25:56.096Z,76.63
2022-09-01T01:28:44.441Z,78.64
2022-09-01T01:31:19.586Z,80.07
2022-09-01T01:33:58.094Z,78.21
2022-09-01T01:36:32.658Z,82.07
2022-09-01T01:39:03.973Z,81.52
2022-09-01T01:41:33.597Z,83.63
2022-09-01T01:44:04.529Z,85.74
2022-09-01T01:46:33.908Z,82.35
2022-09-01T01:49:02.566Z,83.95
2022-09-01T01:51:32.047Z,84.71
2022-09-01T01:54:01.965Z,87.04
2022-09-01T01:56:28.815Z,82.72
2022-09-01T01:58:59.045Z,82.42
2022-09-01T02:01:29.417Z,82.74
2022-09-01T02:03:57.858Z,80.95
2022-09-01T02:06:28.273Z,84.01
2022-09-01T02:08:58.212Z,82.32
2022-09-01T02:11:26.417Z,85.37
2022-09-01T02:13:57.610Z,81.60
2022-09-01T02:16:27.380Z,82.51
2022-09-01T02:18:54.136Z,82.22
2022-09-01T02:21:23.890Z,82.11
2022-09-01T02:23:59.705Z,83.24
2022-09-01T02:26:34.233Z,81.36
2022-09-01T02:29:04.905Z,83.67
2022-09-01T02:31:35.535Z,81.23
2022-09-01T02:34:03.952Z,80.51
2022-09-01T02:36:33.014Z,84.04
2022-09-01T02:38:59.858Z,83.81
2022-09-01T02:41:29.380Z,85.88
2022-09-01T02:43:57.129Z,84.32
2022-09-01T02:46:24.623Z,86.00
2022-09-01T02:48:52.470Z,83.03
2022-09-01T02:51:22.709Z,81.95
2022-09-01T02:53:52.996Z,84.00
2022-09-01T02:56:23.911Z,84.51
2022-09-01T02:58:53.488Z,84.96
2022-09-01T03:01:26.482Z,83.54
2022-09-01T03:03:56.383Z,84.77
2022-09-01T03:06:24.721Z,82.29
2022-09-01T03:08:59.112Z,83.35
2022-09-01T03:11:27.459Z,80.67
2022-09-01T03:13:54.178Z,79.87
2022-09-01T03:16:22.618Z,79.89
2022-09-01T03:18:50.770Z,81.13
2022-09-01T03:21:18.342Z,80.43
2022-09-01T03:23:47.122Z,79.24
2022-09-01T03:26:15.134Z,78.67
2022-09-01T03:28:42.033Z,78.67
2022-09-01T03:31:09.185Z,79.19
2022-09-01T03:33:36.970Z,78.57
2022-09-01T03:36:05.382Z,80.39
2022-09-01T03:38:44.245Z,78.98
2022-09-01T03:41:13.475Z,79.76
2022-09-01T03:43:45.893Z,79.48
2022-09-01T03:46:22.006Z,78.53
2022-09-01T03:48:52.088Z,79.78
2022-09-01T03:51:23.064Z,83.54
2022-09-01T03:53:54.613Z,86.33
2022-09-01T03:56:24.800Z,88.47
2022-09-01T03:58:52.253Z,88.67
2022-09-01T04:01:19.995Z,87.66
2022-09-01T04:03:49.552Z,90.18
2022-09-01T04:06:19.559Z,86.85
2022-09-01T04:08:47.364Z,84.30
2022-09-01T04:11:18.971Z,85.24
2022-09-01T04:13:47.471Z,83.31
2022-09-01T04:16:39.518Z,83.15
2022-09-01T04:19:16.208Z,83.46
2022-09-01T04:21:54.481Z,83.23
2022-09-01T04:24:24.328Z,84.76
2022-09-01T04:26:52.912Z,84.41
2022-09-01T04:29:27.759Z,82.72
2022-09-01T04:32:02.704Z,80.98
2022-09-01T04:34:37.362Z,83.26
2022-09-01T04:37:13.395Z,84.39
2022-09-01T04:39:52.467Z,80.69
2022-09-01T04:42:23.700Z,80.63
2022-09-01T04:44:54.759Z,80.73
2022-09-01T04:47:31.604Z,81.30
2022-09-01T04:50:06.080Z,79.85
2022-09-01T04:52:32.759Z,79.30
2022-09-01T04:54:59.700Z,78.08
2022-09-01T04:57:27.829Z,76.90
2022-09-01T04:59:57.266Z,76.66
2022-09-01T05:02:27.335Z,76.88
2022-09-01T05:04:54.435Z,75.26
2022-09-01T05:07:21.642Z,74.93
2022-09-01T05:09:48.462Z,74.14
2022-09-01T05:12:16.708Z,73.34
2022-09-01T05:14:48.889Z,72.79
2022-09-01T05:17:21.983Z,74.28
2022-09-01T05:19:51.286Z,72.67
2022-09-01T05:22:23.180Z,72.80
2022-09-01T05:24:55.434Z,71.55
2022-09-01T05:27:23.028Z,72.26
2022-09-01T05:29:50.603Z,71.48
2022-09-01T05:32:17.630Z,71.89
2022-09-01T05:34:45.267Z,72.72
2022-09-01T05:37:14.699Z,71.59
2022-09-01T05:39:41.768Z,71.25
2022-09-01T05:42:08.726Z,70.58
2022-09-01T05:44:45.093Z,71.09
2022-09-01T05:47:14.758Z,71.23
2022-09-01T05:49:48.057Z,71.99
2022-09-01T05:52:14.827Z,71.17
2022-09-01T05:54:41.616Z,70.37
2022-09-01T05:57:30.740Z,70.37
2022-09-01T05:59:55.197Z,70.20
2022-09-01T06:02:24.269Z,69.21
2022-09-01T06:04:52.996Z,69.96
2022-09-01T06:07:25.249Z,70.66
2022-09-01T06:09:53.916Z,70.62
2022-09-01T06:12:24.050Z,70.10
2022-09-01T06:14:54.277Z,70.39
2022-09-01T06:17:25.107Z,69.26
2022-09-01T06:19:59.492Z,68.78
2022-09-01T06:22:31.201Z,68.67
2022-09-01T06:25:03.242Z,68.60
2022-09-01T06:27:31.314Z,69.51
2022-09-01T06:29:58.519Z,68.88
2022-09-01T06:32:27.251Z,68.98
2022-09-01T06:34:54.346Z,67.78
2022-09-01T06:37:22.845Z,68.07
2022-09-01T06:39:51.890Z,69.65
2022-09-01T06:42:19.710Z,69.48
2022-09-01T06:44:46.649Z,69.12
2022-09-01T06:47:15.728Z,68.59
2022-09-01T06:49:42.778Z,69.33
2022-09-01T06:52:11.988Z,69.02
2022-09-01T06:54:39.786Z,69.17
2022-09-01T06:59:54.489Z,68.60
2022-09-01T07:02:26.564Z,68.18
2022-09-01T07:04:54.590Z,67.85
2022-09-01T07:10:21.052Z,67.81
2022-09-01T07:13:06.000Z,69.45
2022-09-01T07:16:31.950Z,72.07
2022-09-01T07:18:22.850Z,69.28
2022-09-01T07:21:35.888Z,68.10
2022-09-01T07:24:07.888Z,68.57
2022-09-01T07:26:27.180Z,67.46
2022-09-01T07:29:01.686Z,67.22
2022-09-01T07:39:55.433Z,66.98
2022-09-01T07:45:28.348Z,67.83
2022-09-01T07:47:57.455Z,66.81
2022-09-01T07:53:25.436Z,66.82
2022-09-01T07:55:54.618Z,64.37
2022-09-01T07:58:25.287Z,63.12
2022-09-01T08:00:53.537Z,62.24
2022-09-01T08:03:23.831Z,63.74
2022-09-01T08:05:55.771Z,64.75
2022-09-01T08:08:26.374Z,65.72
2022-09-01T08:11:04.411Z,67.43
2022-09-01T08:13:34.653Z,64.18
2022-09-01T08:16:08.350Z,65.87
2022-09-01T08:18:51.029Z,67.51
2022-09-01T08:21:22.255Z,65.40
2022-09-01T08:23:50.873Z,63.82
2022-09-01T08:26:19.576Z,63.92
2022-09-01T08:28:54.334Z,64.25
2022-09-01T08:31:22.976Z,63.37
2022-09-01T08:33:51.053Z,63.15
2022-09-01T08:36:23.686Z,62.29
2022-09-01T08:38:53.216Z,65.22
2022-09-01T08:41:47.362Z,63.45
2022-09-01T08:44:39.167Z,62.79
2022-09-01T08:47:12.876Z,61.46
2022-09-01T08:49:46.400Z,62.99
2022-09-01T08:52:34.256Z,61.91
2022-09-01T08:55:31.867Z,62.59
2022-09-01T08:58:00.998Z,62.69
2022-09-01T09:00:30.825Z,61.14
2022-09-01T09:03:19.074Z,60.31
2022-09-01T09:06:13.756Z,61.60
2022-09-01T09:08:49.375Z,61.50
2022-09-01T09:11:22.318Z,60.82
2022-09-01T09:14:01.168Z,61.73
2022-09-01T09:16:36.008Z,62.62
2022-09-01T09:19:12.907Z,60.87
2022-09-01T09:21:45.529Z,60.54
2022-09-01T09:24:52.946Z,59.74
2022-09-01T09:27:26.871Z,59.87
2022-09-01T09:30:08.331Z,57.19
2022-09-01T09:33:37.288Z,57.09
2022-09-01T09:35:47.549Z,56.28
2022-09-01T09:38:24.346Z,56.30
2022-09-01T09:44:01.295Z,58.85
2022-09-01T09:46:36.952Z,56.93
2022-09-01T09:49:36.593Z,57.77
2022-09-01T09:52:10.651Z,56.58
2022-09-01T09:54:59.706Z,58.85
2022-09-01T09:57:26.802Z,57.90
2022-09-01T10:00:00.624Z,59.76
2022-09-01T10:02:37.535Z,57.47
2022-09-01T10:05:30.149Z,58.01
2022-09-01T10:07:58.465Z,59.34
2022-09-01T10:10:58.186Z,58.97
2022-09-01T10:13:33.578Z,58.94
2022-09-01T10:16:05.578Z,57.54
2022-09-01T10:18:45.093Z,57.75
2022-09-01T10:21:24.306Z,57.06
2022-09-01T10:23:51.189Z,56.83
2022-09-01T10:26:25.291Z,57.13
2022-09-01T10:29:01.076Z,54.98
2022-09-01T10:31:32.434Z,55.30
2022-09-01T10:34:05.704Z,53.44
2022-09-01T10:36:35.974Z,53.11
2022-09-01T10:39:08.792Z,52.82
2022-09-01T10:42:00.029Z,51.20
2022-09-01T10:44:36.374Z,52.62
2022-09-01T10:47:24.681Z,54.12
2022-09-01T10:49:51.604Z,54.49
2022-09-01T10:52:43.761Z,55.93
2022-09-01T10:55:41.957Z,55.15
2022-09-01T11:01:39.630Z,58.03
2022-09-01T11:04:03.459Z,55.94
2022-09-01T11:09:45.423Z,57.65
2022-09-01T11:12:30.269Z,56.98
2022-09-01T11:15:06.974Z,57.53
2022-09-01T11:17:38.018Z,59.84
2022-09-01T11:20:25.331Z,58.27
2022-09-01T11:23:28.042Z,59.41
2022-09-01T11:26:21.193Z,56.43
2022-09-01T11:28:49.010Z,55.08
2022-09-01T11:31:32.725Z,56.31
2022-09-01T11:34:04.063Z,58.19
2022-09-01T11:36:35.593Z,56.44
2022-09-01T11:39:19.198Z,55.76
2022-09-01T11:42:09.183Z,54.69
2022-09-01T11:45:06.573Z,54.31
2022-09-01T11:47:40.643Z,53.08
2022-09-01T11:50:17.223Z,55.95
2022-09-01T11:53:04.755Z,54.90
2022-09-01T11:55:38.184Z,54.24
2022-09-01T11:58:05.826Z,51.49
2022-09-01T12:00:38.649Z,52.34
2022-09-01T12:03:23.992Z,51.94
2022-09-01T12:06:04.279Z,52.29
2022-09-01T12:08:34.953Z,52.64
2022-09-01T12:11:07.911Z,49.25
2022-09-01T12:13:35.721Z,51.60
2022-09-01T12:16:17.985Z,49.22
2022-09-01T12:18:49.135Z,47.75
2022-09-01T12:21:43.837Z,45.90
2022-09-01T12:24:23.294Z,46.30
2022-09-01T12:26:59.206Z,47.00
2022-09-01T12:29:28.880Z,48.15
2022-09-01T12:32:00.624Z,48.37
2022-09-01T12:34:33.514Z,46.93
2022-09-01T12:37:09.503Z,47.01
2022-09-01T12:39:42.639Z,45.77
2022-09-01T12:42:21.896Z,46.56
2022-09-01T12:44:53.908Z,45.17
2022-09-01T12:47:50.421Z,46.27
2022-09-01T12:50:17.631Z,44.86
2022-09-01T12:53:14.032Z,44.36
2022-09-01T12:55:48.305Z,42.92
2022-09-01T12:58:25.855Z,43.99
2022-09-01T13:00:59.673Z,41.34
2022-09-01T13:03:29.627Z,43.12
2022-09-01T13:05:59.949Z,42.53
2022-09-01T13:08:36.014Z,42.47
2022-09-01T13:11:08.262Z,41.80
2022-09-01T13:13:46.907Z,40.84
2022-09-01T13:16:15.550Z,40.78
2022-09-01T13:21:31.315Z,39.91
2022-09-01T13:23:58.808Z,40.86
2022-09-01T13:26:26.513Z,41.97
2022-09-01T13:28:53.964Z,43.36
2022-09-01T13:31:29.220Z,43.11
2022-09-01T13:34:23.095Z,44.30
2022-09-01T13:36:47.349Z,42.32
2022-09-01T13:39:17.137Z,41.55
2022-09-01T13:41:47.347Z,43.46
2022-09-01T13:44:14.635Z,42.87
2022-09-01T13:50:05.452Z,43.60
2022-09-01T13:52:15.713Z,42.73
2022-09-01T13:54:44.598Z,41.93
2022-09-01T13:57:11.943Z,42.89
2022-09-01T13:59:39.293Z,43.15
2022-09-01T14:02:06.425Z,44.08
2022-09-01T14:04:33.281Z,44.35
2022-09-01T14:07:00.233Z,45.60
2022-09-01T14:09:27.197Z,45.06
2022-09-01T14:11:55.803Z,44.33
2022-09-01T14:14:23.155Z,43.94
2022-09-01T14:16:49.970Z,44.13
2022-09-01T14:19:17.033Z,43.96
2022-09-01T14:21:45.405Z,43.99
2022-09-01T14:24:13.265Z,43.00
2022-09-01T14:26:41.775Z,42.60
2022-09-01T14:29:08.676Z,42.90
2022-09-01T14:31:37.944Z,41.88
2022-09-01T14:34:06.931Z,43.09
2022-09-01T14:36:33.772Z,44.25
2022-09-01T14:39:00.850Z,43.69
2022-09-01T14:41:27.624Z,43.41
2022-09-01T14:44:02.801Z,43.96
2022-09-01T14:46:31.205Z,44.26
2022-09-01T14:48:58.062Z,44.50
2022-09-01T14:52:10.209Z,43.75
2022-09-01T14:54:16.045Z,44.68
2022-09-01T14:57:27.187Z,45.58
2022-09-01T14:59:29.622Z,44.38
2022-09-01T15:01:56.486Z,45.87
2022-09-01T15:04:23.289Z,45.89
2022-09-01T15:06:50.300Z,44.92
2022-09-01T15:09:19.146Z,45.95
2022-09-01T15:11:46.832Z,45.85
2022-09-01T15:14:13.661Z,46.17
2022-09-01T15:16:41.819Z,45.58
2022-09-01T15:19:11.101Z,46.49
2022-09-01T15:21:40.474Z,45.20
2022-09-01T15:24:08.847Z,45.48
2022-09-01T15:26:37.416Z,45.43
2022-09-01T15:29:05.055Z,44.49
2022-09-01T15:31:33.729Z,44.42
2022-09-01T15:34:03.411Z,45.59
2022-09-01T15:36:31.413Z,45.42
2022-09-01T15:38:59.076Z,45.60
2022-09-01T15:41:28.792Z,45.04
2022-09-01T15:43:56.887Z,47.04
2022-09-01T15:46:32.110Z,46.12
2022-09-01T15:49:00.702Z,45.89
2022-09-01T15:51:37.589Z,45.68
2022-09-01T15:54:16.554Z,45.34
2022-09-01T15:56:43.621Z,45.30
2022-09-01T15:59:11.791Z,45.16
2022-09-01T16:01:42.904Z,44.72
2022-09-01T16:04:17.796Z,45.51
2022-09-01T16:06:46.374Z,45.04
2022-09-01T16:09:13.877Z,45.04
2022-09-01T16:11:43.542Z,45.67
2022-09-01T16:14:10.649Z,45.55
2022-09-01T16:17:09.599Z,46.84
2022-09-01T16:19:51.956Z,47.37
2022-09-01T16:22:28.349Z,45.97
2022-09-01T16:25:01.024Z,45.00
2022-09-01T16:27:44.472Z,45.67
2022-09-01T16:30:14.497Z,45.11
2022-09-01T16:32:45.919Z,47.02
2022-09-01T16:35:14.118Z,46.63
2022-09-01T16:37:58.364Z,46.83
2022-09-01T16:40:39.730Z,47.17
2022-09-01T16:43:15.647Z,47.49
2022-09-01T16:45:51.839Z,47.42
2022-09-01T16:48:21.362Z,47.53
2022-09-01T16:50:55.376Z,47.04
2022-09-01T16:53:48.391Z,47.24
2022-09-01T16:56:24.057Z,47.38
2022-09-01T16:59:15.058Z,46.82
2022-09-01T17:01:52.508Z,47.62
2022-09-01T17:04:19.326Z,47.55
2022-09-01T17:06:57.386Z,47.86
2022-09-01T17:09:33.754Z,47.84
2022-09-01T17:12:18.155Z,47.57
2022-09-01T17:14:59.751Z,48.21
2022-09-01T17:17:41.758Z,47.95
2022-09-01T17:20:08.986Z,47.91
2022-09-01T17:22:37.761Z,48.43
2022-09-01T17:25:13.661Z,48.27
2022-09-01T17:27:58.380Z,49.43
2022-09-01T17:30:25.562Z,49.55
2022-09-01T17:33:17.176Z,49.37
2022-09-01T17:36:10.832Z,49.14
2022-09-01T17:38:54.317Z,48.49
2022-09-01T17:42:11.694Z,49.23
2022-09-01T17:44:55.604Z,48.86
2022-09-01T17:47:26.615Z,49.29
2022-09-01T17:50:18.546Z,49.49
2022-09-01T17:53:11.133Z,49.57
2022-09-01T17:55:54.839Z,49.70
2022-09-01T17:58:59.924Z,49.15
2022-09-01T18:01:45.661Z,49.49
2022-09-01T18:04:38.769Z,49.85
2022-09-01T18:07:42.250Z,51.26
2022-09-01T18:10:17.833Z,50.34
2022-09-01T18:12:46.954Z,50.46
2022-09-01T18:15:24.504Z,51.51
2022-09-01T18:17:55.541Z,50.97
2022-09-01T18:20:31.528Z,52.28
2022-09-01T18:23:04.716Z,52.51
2022-09-01T18:25:59.934Z,52.51
2022-09-01T18:28:26.784Z,52.87
2022-09-01T18:30:59.674Z,52.50
2022-09-01T18:33:26.458Z,53.58
2022-09-01T18:36:11.515Z,53.59
2022-09-01T18:38:45.177Z,52.57
2022-09-01T18:42:05.542Z,52.89
2022-09-01T18:44:44.377Z,52.72
2022-09-01T18:47:17.363Z,53.41
2022-09-01T18:50:00.626Z,53.92
2022-09-01T18:52:33.421Z,54.78
2022-09-01T18:55:02.695Z,54.42
2022-09-01T18:57:38.375Z,53.70
2022-09-01T19:00:19.291Z,54.73
2022-09-01T19:02:59.648Z,55.39
2022-09-01T19:05:45.912Z,55.05
2022-09-01T19:08:37.880Z,55.51
2022-09-01T19:11:26.509Z,55.37
2022-09-01T19:14:11.584Z,54.84
2022-09-01T19:16:44.538Z,54.51
2022-09-01T19:19:11.644Z,55.49
2022-09-01T19:21:39.439Z,58.33
2022-09-01T19:24:13.406Z,58.78
2022-09-01T19:26:46.150Z,57.60
2022-09-01T19:29:19.579Z,57.93
2022-09-01T19:32:02.078Z,57.88
2022-09-01T19:34:46.118Z,58.19
2022-09-01T19:37:13.278Z,57.85
2022-09-01T19:39:44.767Z,57.37
2022-09-01T19:42:20.353Z,57.30
2022-09-01T19:45:24.447Z,56.18
2022-09-01T19:48:15.270Z,56.67
2022-09-01T19:51:03.563Z,55.93
2022-09-01T19:53:44.562Z,55.45
2022-09-01T19:56:15.149Z,55.78
2022-09-01T19:58:51.771Z,57.27
2022-09-01T20:01:32.680Z,57.90
2022-09-01T20:04:04.230Z,56.71
2022-09-01T20:06:35.272Z,56.59
2022-09-01T20:09:16.453Z,57.36
2022-09-01T20:12:05.795Z,56.12
2022-09-01T20:14:56.848Z,59.53
2022-09-01T20:17:29.454Z,61.49
2022-09-01T20:20:21.920Z,60.37
2022-09-01T20:23:07.454Z,60.04
2022-09-01T20:25:58.959Z,59.53
2022-09-01T20:28:31.361Z,59.93
2022-09-01T20:31:12.451Z,58.90
2022-09-01T20:33:47.149Z,58.56
2022-09-01T20:36:45.150Z,58.03
2022-09-01T20:39:47.156Z,57.90
2022-09-01T20:42:21.395Z,56.95
2022-09-01T20:44:55.444Z,56.60
2022-09-01T20:47:27.930Z,55.64
2022-09-01T20:49:57.316Z,55.25
2022-09-01T20:52:52.056Z,54.84
2022-09-01T20:55:25.177Z,55.17
2022-09-01T20:58:11.426Z,55.12
2022-09-01T21:01:17.651Z,55.08
2022-09-01T21:04:09.399Z,55.76
2022-09-01T21:06:49.156Z,55.23
2022-09-01T21:09:28.585Z,55.77
2022-09-01T21:12:17.826Z,55.93
2022-09-01T21:14:57.222Z,57.31
2022-09-01T21:17:49.763Z,55.69
2022-09-01T21:20:38.586Z,58.23
2022-09-01T21:23:06.811Z,57.63
2022-09-01T21:25:34.014Z,58.14
2022-09-01T21:28:04.591Z,57.73
2022-09-01T21:30:34.198Z,56.80
2022-09-01T21:33:01.645Z,58.16
2022-09-01T21:35:28.745Z,57.78
2022-09-01T21:37:55.517Z,57.89
2022-09-01T21:40:24.530Z,58.78
2022-09-01T21:42:54.594Z,57.13
2022-09-01T21:45:22.422Z,56.17
2022-09-01T21:47:50.910Z,54.69
2022-09-01T21:50:20.549Z,54.73
2022-09-01T21:52:47.427Z,54.88
2022-09-01T21:55:17.483Z,54.49
2022-09-01T21:57:47.725Z,54.84
2022-09-01T22:00:21.822Z,55.74
2022-09-01T22:02:48.887Z,56.13
2022-09-01T22:05:15.720Z,56.33
2022-09-01T22:07:45.606Z,55.33
2022-09-01T22:10:16.520Z,56.15
2022-09-01T22:12:45.936Z,55.62
2022-09-01T22:15:16.236Z,56.22
2022-09-01T22:17:43.327Z,55.42
2022-09-01T22:20:12.257Z,55.66
2022-09-01T22:22:39.545Z,55.66
2022-09-01T22:25:09.442Z,54.55
2022-09-01T22:27:36.324Z,55.12
2022-09-01T22:30:05.643Z,55.89
2022-09-01T22:32:36.297Z,58.16
2022-09-01T22:35:05.340Z,56.53
2022-09-01T22:37:32.142Z,55.55
2022-09-01T22:39:58.984Z,54.68
2022-09-01T22:42:25.811Z,55.27
2022-09-01T22:44:52.668Z,55.38
2022-09-01T22:47:19.492Z,53.90
2022-09-01T22:49:46.241Z,53.31
2022-09-01T22:52:13.949Z,53.65
2022-09-01T22:54:40.787Z,52.90
2022-09-01T22:57:07.671Z,52.52
2022-09-01T22:59:34.499Z,51.84
2022-09-01T23:02:02.013Z,52.49
2022-09-01T23:04:31.514Z,53.01
2022-09-01T23:06:58.338Z,52.88
2022-09-01T23:09:25.299Z,52.05
2022-09-01T23:11:52.358Z,54.70
2022-09-01T23:14:19.187Z,52.58
2022-09-01T23:16:47.310Z,52.84
2022-09-01T23:19:22.180Z,52.78
2022-09-01T23:21:49.965Z,51.65
2022-09-01T23:24:19.743Z,52.60
2022-09-01T23:26:47.539Z,52.47
2022-09-01T23:29:14.558Z,51.96
2022-09-01T23:31:41.893Z,51.65
2022-09-01T23:34:08.893Z,52.13
2022-09-01T23:36:36.868Z,51.50
2022-09-01T23:39:05.179Z,51.14
2022-09-01T23:41:34.802Z,50.87
2022-09-01T23:44:03.570Z,51.11
2022-09-01T23:46:37.273Z,50.66
2022-09-01T23:49:05.565Z,51.58
2022-09-01T23:51:32.395Z,50.49
2022-09-01T23:53:59.534Z,52.70
2022-09-01T23:56:28.504Z,50.81
2022-09-01T23:58:55.857Z,50.99
